createdAt,value
2023-05-25T00:01:54.787Z,95251.59
2023-05-25T00:04:27.344Z,95251.91
2023-05-25T00:06:56.876Z,95250.19
2023-05-25T00:09:26.104Z,95257.78
2023-05-25T00:11:54.411Z,95254.34
2023-05-25T00:14:22.634Z,95264.50
2023-05-25T00:16:51.671Z,95253.25
2023-05-25T00:19:19.785Z,95252.13
2023-05-25T00:21:48.861Z,95264.81
2023-05-25T00:24:18.338Z,95260.19
2023-05-25T00:26:47.530Z,95251.22
2023-05-25T00:29:17.185Z,95250.44
2023-05-25T00:31:45.291Z,95255.19
2023-05-25T00:34:13.267Z,95244.75
2023-05-25T00:36:43.344Z,95251.59
2023-05-25T00:39:11.492Z,95249.50
2023-05-25T00:41:41.859Z,95247.50
2023-05-25T00:44:09.944Z,95245.50
2023-05-25T00:46:39.376Z,95253.50
2023-05-25T00:49:07.506Z,95260.06
2023-05-25T00:51:36.625Z,95262.38
2023-05-25T00:54:04.799Z,95266.16
2023-05-25T00:56:36.181Z,95270.59
2023-05-25T00:59:09.298Z,95271.19
2023-05-25T01:01:40.485Z,95275.38
2023-05-25T01:04:13.493Z,95269.28
2023-05-25T01:06:45.875Z,95273.97
2023-05-25T01:09:17.517Z,95278.38
2023-05-25T01:11:49.944Z,95211.38
2023-05-25T01:14:22.392Z,95245.13
2023-05-25T01:16:51.912Z,95269.50
2023-05-25T01:19:20.198Z,95274.31
2023-05-25T01:21:57.880Z,95270.63
2023-05-25T01:24:34.573Z,95275.09
2023-05-25T01:27:08.916Z,95268.94
2023-05-25T01:29:41.331Z,95270.44
2023-05-25T01:32:10.120Z,95268.94
2023-05-25T01:34:39.979Z,95262.91
2023-05-25T01:37:09.363Z,95253.53
2023-05-25T01:39:37.431Z,95262.97
2023-05-25T01:42:05.816Z,95252.81
2023-05-25T01:44:34.114Z,95258.84
2023-05-25T01:47:06.956Z,95189.63
2023-05-25T01:49:44.370Z,95252.91
2023-05-25T01:52:20.681Z,95246.19
2023-05-25T01:54:54.121Z,95252.28
2023-05-25T01:57:23.437Z,95249.22
2023-05-25T01:59:54.888Z,95255.69
2023-05-25T02:02:23.658Z,95255.63
2023-05-25T02:04:51.804Z,95262.38
2023-05-25T02:07:21.214Z,95260.53
2023-05-25T02:09:49.132Z,95263.25
2023-05-25T02:12:17.157Z,95215.19
2023-05-25T02:14:46.117Z,95269.81
2023-05-25T02:17:14.190Z,95276.69
2023-05-25T02:19:42.287Z,95265.38
2023-05-25T02:22:10.263Z,95269.81
2023-05-25T02:24:39.655Z,95281.94
2023-05-25T02:27:08.005Z,95277.25
2023-05-25T02:29:36.126Z,95276.69
2023-05-25T02:32:04.155Z,95273.84
2023-05-25T02:34:32.200Z,95284.09
2023-05-25T02:37:00.930Z,95281.09
2023-05-25T02:39:28.965Z,95288.25
2023-05-25T02:41:58.356Z,95293.19
2023-05-25T02:44:26.354Z,95292.81
2023-05-25T02:46:54.481Z,95307.88
2023-05-25T02:49:22.611Z,95296.56
2023-05-25T02:51:50.616Z,95306.09
2023-05-25T02:54:18.628Z,95312.53
2023-05-25T02:56:46.689Z,95311.50
2023-05-25T02:59:16.522Z,95306.41
2023-05-25T03:01:44.935Z,95313.97
2023-05-25T03:04:12.961Z,95308.06
2023-05-25T03:06:40.938Z,95316.09
2023-05-25T03:09:09.837Z,95305.31
2023-05-25T03:11:37.821Z,95320.09
2023-05-25T03:14:06.021Z,95315.09
2023-05-25T03:16:36.596Z,95313.53
2023-05-25T03:19:05.664Z,95317.09
2023-05-25T03:21:33.655Z,95324.03
2023-05-25T03:24:01.670Z,95320.97
2023-05-25T03:26:30.676Z,95315.91
2023-05-25T03:28:58.696Z,95323.94
2023-05-25T03:31:26.881Z,95327.22
2023-05-25T03:33:56.248Z,95324.22
2023-05-25T03:36:27.475Z,95303.78
2023-05-25T03:41:40.990Z,95325.38
2023-05-25T03:44:10.775Z,95318.38
2023-05-25T03:46:39.521Z,95323.25
2023-05-25T03:49:13.633Z,95324.69
2023-05-25T03:51:41.999Z,95332.81
2023-05-25T03:54:10.082Z,95316.38
2023-05-25T03:56:38.044Z,95332.13
2023-05-25T03:59:06.005Z,95333.13
2023-05-25T04:01:38.163Z,95343.34
2023-05-25T04:04:06.614Z,95335.69
2023-05-25T04:06:37.286Z,95349.00
2023-05-25T04:09:05.731Z,95327.41
2023-05-25T04:11:33.650Z,95348.69
2023-05-25T04:14:01.556Z,95353.47
2023-05-25T04:16:29.817Z,95353.56
2023-05-25T04:18:58.163Z,95355.31
2023-05-25T04:21:26.769Z,95345.25
2023-05-25T04:23:56.556Z,95330.06
2023-05-25T04:26:26.400Z,95359.72
2023-05-25T04:28:55.895Z,95337.97
2023-05-25T04:31:25.017Z,95207.50
2023-05-25T04:33:53.044Z,95372.09
2023-05-25T04:36:21.172Z,95372.09
2023-05-25T04:38:52.292Z,95263.97
2023-05-25T04:41:21.857Z,95372.06
2023-05-25T04:44:05.890Z,95371.38
2023-05-25T04:46:37.686Z,95368.16
2023-05-25T04:49:06.413Z,95372.56
2023-05-25T04:51:34.374Z,95370.25
2023-05-25T04:54:02.419Z,95355.38
2023-05-25T04:56:31.761Z,95354.78
2023-05-25T04:58:59.943Z,95345.84
2023-05-25T05:01:31.613Z,95340.75
2023-05-25T05:03:59.837Z,95356.41
2023-05-25T05:06:29.204Z,95354.00
2023-05-25T05:08:57.142Z,95358.34
2023-05-25T05:11:25.241Z,95364.56
2023-05-25T05:13:54.706Z,95366.41
2023-05-25T05:16:23.085Z,95353.97
2023-05-25T05:18:51.445Z,95361.81
2023-05-25T05:21:21.336Z,95365.03
2023-05-25T05:23:50.291Z,95363.69
2023-05-25T05:26:18.326Z,95318.03
2023-05-25T05:28:46.355Z,95372.75
2023-05-25T05:31:19.879Z,95360.25
2023-05-25T05:33:50.474Z,95292.09
2023-05-25T05:36:18.494Z,95378.72
2023-05-25T05:38:47.118Z,95384.25
2023-05-25T05:41:15.432Z,95341.09
2023-05-25T05:43:45.730Z,95374.50
2023-05-25T05:46:14.080Z,95380.47
2023-05-25T05:48:43.819Z,95377.41
2023-05-25T05:51:11.966Z,95392.25
2023-05-25T05:53:40.419Z,95390.22
2023-05-25T05:56:18.458Z,95388.97
2023-05-25T05:58:49.688Z,95389.31
2023-05-25T06:01:18.256Z,95383.75
2023-05-25T06:03:47.930Z,95350.50
2023-05-25T06:06:16.426Z,95368.84
2023-05-25T06:08:44.831Z,95375.00
2023-05-25T06:11:12.992Z,95388.69
2023-05-25T06:13:40.984Z,95382.00
2023-05-25T06:16:09.199Z,95389.09
2023-05-25T06:18:37.381Z,95376.84
2023-05-25T06:21:07.652Z,95385.25
2023-05-25T06:23:35.745Z,95382.31
2023-05-25T06:26:07.339Z,95378.44
2023-05-25T06:28:35.640Z,95382.69
2023-05-25T06:31:04.000Z,95391.28
2023-05-25T06:33:32.924Z,95390.81
2023-05-25T06:36:01.721Z,95392.13
2023-05-25T06:38:31.470Z,95388.03
2023-05-25T06:41:05.027Z,95389.88
2023-05-25T06:43:33.324Z,95389.59
2023-05-25T06:46:01.346Z,95390.28
2023-05-25T06:48:29.480Z,95373.72
2023-05-25T06:50:57.674Z,95390.06
2023-05-25T06:53:25.711Z,95387.44
2023-05-25T06:55:55.176Z,95372.03
2023-05-25T06:58:23.140Z,95386.28
2023-05-25T07:00:51.690Z,95324.94
2023-05-25T07:03:21.062Z,95393.31
2023-05-25T07:08:37.012Z,95388.88
2023-05-25T07:11:09.122Z,95367.16
2023-05-25T07:13:37.161Z,95369.56
2023-05-25T07:16:05.302Z,95383.78
2023-05-25T07:18:33.557Z,95375.41
2023-05-25T07:21:01.625Z,95360.63
2023-05-25T07:23:29.917Z,95378.06
2023-05-25T07:25:58.146Z,95383.03
2023-05-25T07:28:27.514Z,95383.84
2023-05-25T07:30:55.901Z,95373.22
2023-05-25T07:33:24.005Z,95388.44
2023-05-25T07:35:52.631Z,95377.00
2023-05-25T07:38:20.956Z,95382.91
2023-05-25T07:40:49.417Z,95387.84
2023-05-25T07:43:17.516Z,95396.84
2023-05-25T07:45:46.992Z,95381.38
2023-05-25T07:48:15.261Z,95374.16
2023-05-25T07:50:45.482Z,95372.38
2023-05-25T07:53:14.027Z,95378.41
2023-05-25T07:55:42.199Z,95392.94
2023-05-25T07:58:10.454Z,95404.75
2023-05-25T08:00:38.865Z,95409.75
2023-05-25T08:03:08.485Z,95403.72
2023-05-25T08:05:36.513Z,95427.69
2023-05-25T08:08:04.832Z,95409.31
2023-05-25T08:10:32.868Z,95431.25
2023-05-25T08:13:01.020Z,95428.13
2023-05-25T08:15:29.738Z,95437.50
2023-05-25T08:17:58.025Z,95443.72
2023-05-25T08:20:28.136Z,95419.47
2023-05-25T08:22:56.266Z,95450.78
2023-05-25T08:25:24.429Z,95458.59
2023-05-25T08:27:52.562Z,95456.19
2023-05-25T08:30:20.789Z,95460.03
2023-05-25T08:32:48.978Z,95478.34
2023-05-25T08:35:17.613Z,95469.53
2023-05-25T08:37:46.993Z,95469.41
2023-05-25T08:40:16.511Z,95466.47
2023-05-25T08:42:45.532Z,95471.16
2023-05-25T08:45:26.478Z,95469.84
2023-05-25T08:48:07.463Z,95469.75
2023-05-25T08:50:37.146Z,95443.59
2023-05-25T08:53:15.723Z,95464.47
2023-05-25T08:55:47.804Z,95480.88
2023-05-25T08:58:19.701Z,95481.88
2023-05-25T09:00:56.723Z,95482.75
2023-05-25T09:03:26.582Z,95478.28
2023-05-25T09:05:57.485Z,95484.03
2023-05-25T09:08:27.377Z,95478.13
2023-05-25T09:10:57.780Z,95479.69
2023-05-25T09:13:25.939Z,95480.25
2023-05-25T09:15:54.563Z,95488.44
2023-05-25T09:18:22.777Z,95447.03
2023-05-25T09:20:51.247Z,95475.94
2023-05-25T09:23:20.340Z,95487.34
2023-05-25T09:25:52.135Z,95488.63
2023-05-25T09:30:52.621Z,95496.25
2023-05-25T09:33:21.123Z,95494.06
2023-05-25T09:35:50.201Z,95504.88
2023-05-25T09:38:18.559Z,95506.88
2023-05-25T09:40:47.413Z,95513.81
2023-05-25T09:43:32.272Z,95513.50
2023-05-25T09:46:06.465Z,95505.53
2023-05-25T09:48:34.892Z,95507.16
2023-05-25T09:51:02.952Z,95508.94
2023-05-25T09:53:32.790Z,95510.50
2023-05-25T09:56:03.184Z,95504.00
2023-05-25T09:58:33.881Z,95510.22
2023-05-25T10:01:02.850Z,95499.22
2023-05-25T10:03:31.073Z,95498.47
2023-05-25T10:05:59.155Z,95495.91
2023-05-25T10:08:29.210Z,95494.72
2023-05-25T10:10:57.324Z,95489.88
2023-05-25T10:13:28.405Z,95487.53
2023-05-25T10:15:59.560Z,95484.25
2023-05-25T10:18:30.290Z,95481.47
2023-05-25T10:21:03.792Z,95476.34
2023-05-25T10:23:40.296Z,95467.59
2023-05-25T10:26:10.092Z,95462.78
2023-05-25T10:28:40.722Z,95457.22
2023-05-25T10:31:10.896Z,95451.00
2023-05-25T10:33:39.032Z,95445.75
2023-05-25T10:36:11.252Z,95442.97
2023-05-25T10:38:42.054Z,95437.81
2023-05-25T10:41:11.655Z,95433.31
2023-05-25T10:43:40.802Z,95435.56
2023-05-25T10:46:11.039Z,95442.44
2023-05-25T10:48:39.748Z,95426.53
2023-05-25T10:51:10.061Z,95433.06
2023-05-25T10:53:39.915Z,95419.00
2023-05-25T10:56:10.791Z,95414.72
2023-05-25T10:58:43.585Z,95422.31
2023-05-25T11:01:15.153Z,95420.38
2023-05-25T11:03:51.783Z,95419.38
2023-05-25T11:06:21.724Z,95421.06
2023-05-25T11:08:52.781Z,95422.97
2023-05-25T11:11:21.047Z,95414.91
2023-05-25T11:13:50.610Z,95416.47
2023-05-25T11:16:22.390Z,95413.69
2023-05-25T11:18:54.996Z,95408.88
2023-05-25T11:21:42.501Z,95409.50
2023-05-25T11:24:15.706Z,95412.25
2023-05-25T11:26:58.518Z,95407.59
2023-05-25T11:29:27.438Z,95410.78
2023-05-25T11:31:59.519Z,95411.88
2023-05-25T11:34:28.135Z,95413.78
2023-05-25T11:36:57.851Z,95418.13
2023-05-25T11:39:26.048Z,95414.41
2023-05-25T11:41:57.050Z,95422.50
2023-05-25T11:44:29.926Z,95406.44
2023-05-25T11:47:03.013Z,95414.66
2023-05-25T11:49:31.134Z,95412.78
2023-05-25T11:51:59.447Z,95407.56
2023-05-25T11:54:29.126Z,95404.50
2023-05-25T11:57:02.650Z,95407.00
2023-05-25T11:59:32.346Z,95410.38
2023-05-25T12:02:04.365Z,95399.81
2023-05-25T12:04:35.108Z,95392.31
2023-05-25T12:07:05.588Z,95382.81
2023-05-25T12:09:33.892Z,95388.47
2023-05-25T12:12:04.437Z,95388.53
2023-05-25T12:14:35.024Z,95387.13
2023-05-25T12:17:07.578Z,95391.03
2023-05-25T12:19:36.507Z,95382.91
2023-05-25T12:22:04.774Z,95381.53
2023-05-25T12:24:32.871Z,95379.66
2023-05-25T12:27:02.484Z,95372.06
2023-05-25T12:29:30.825Z,95375.09
2023-05-25T12:32:05.665Z,95369.03
2023-05-25T12:34:33.657Z,95358.75
2023-05-25T12:37:01.854Z,95356.78
2023-05-25T12:39:38.889Z,95354.25
2023-05-25T12:42:13.518Z,95349.75
2023-05-25T12:44:41.740Z,95348.53
2023-05-25T12:47:16.389Z,95278.19
2023-05-25T12:49:45.989Z,95347.97
2023-05-25T12:52:33.862Z,95338.81
2023-05-25T12:55:21.029Z,95332.28
2023-05-25T12:57:52.516Z,95305.97
2023-05-25T13:00:22.283Z,95323.72
2023-05-25T13:02:52.183Z,95314.34
2023-05-25T13:05:21.706Z,95312.28
2023-05-25T13:07:49.880Z,95293.38
2023-05-25T13:10:18.769Z,95273.69
2023-05-25T13:12:47.552Z,95152.13
2023-05-25T13:15:17.376Z,95262.25
2023-05-25T13:17:46.220Z,95256.66
2023-05-25T13:20:16.446Z,95229.41
2023-05-25T13:22:46.247Z,95129.44
2023-05-25T13:25:15.687Z,95265.88
2023-05-25T13:27:46.060Z,95263.56
2023-05-25T13:30:15.371Z,95256.03
2023-05-25T13:32:44.538Z,95252.91
2023-05-25T13:35:19.330Z,95254.50
2023-05-25T13:37:48.856Z,95261.06
2023-05-25T13:40:17.062Z,95258.41
2023-05-25T13:42:45.074Z,95268.88
2023-05-25T13:45:13.888Z,95261.75
2023-05-25T13:47:43.716Z,95260.44
2023-05-25T13:50:12.846Z,95265.28
2023-05-25T13:52:40.976Z,95263.09
2023-05-25T13:55:10.663Z,95264.53
2023-05-25T13:57:38.876Z,95262.50
2023-05-25T14:00:09.662Z,95257.22
2023-05-25T14:02:38.361Z,95267.91
2023-05-25T14:05:07.200Z,95258.25
2023-05-25T14:07:35.906Z,95266.13
2023-05-25T14:10:04.490Z,95252.69
2023-05-25T14:12:34.446Z,95266.63
2023-05-25T14:15:02.939Z,95253.84
2023-05-25T14:17:31.123Z,95252.38
2023-05-25T14:19:59.889Z,95240.91
2023-05-25T14:22:28.024Z,95252.31
2023-05-25T14:24:56.108Z,95249.94
2023-05-25T14:27:24.482Z,95194.41
2023-05-25T14:29:53.848Z,95242.31
2023-05-25T14:32:21.853Z,95233.22
2023-05-25T14:34:51.177Z,95236.19
2023-05-25T14:37:19.366Z,95234.28
2023-05-25T14:39:47.371Z,95202.03
2023-05-25T14:42:16.073Z,95227.16
2023-05-25T14:44:44.076Z,95237.63
2023-05-25T14:47:14.014Z,95233.66
2023-05-25T14:49:42.164Z,95228.50
2023-05-25T14:52:10.278Z,95190.88
2023-05-25T14:54:44.018Z,95230.81
2023-05-25T14:57:12.510Z,95228.44
2023-05-25T14:59:40.945Z,95228.75
2023-05-25T15:02:09.265Z,95220.94
2023-05-25T15:04:38.961Z,95216.25
2023-05-25T15:07:06.886Z,95217.53
2023-05-25T15:09:36.726Z,95209.78
2023-05-25T15:12:05.146Z,95218.16
2023-05-25T15:14:33.056Z,95220.28
2023-05-25T15:17:01.773Z,95220.06
2023-05-25T15:19:31.452Z,95240.84
2023-05-25T15:22:01.069Z,95233.44
2023-05-25T15:24:29.067Z,95234.38
2023-05-25T15:26:57.031Z,95245.03
2023-05-25T15:29:25.240Z,95213.25
2023-05-25T15:31:54.068Z,95249.78
2023-05-25T15:34:22.514Z,95245.66
2023-05-25T15:36:51.729Z,95253.56
2023-05-25T15:39:22.223Z,95265.31
2023-05-25T15:41:52.380Z,95273.19
2023-05-25T15:44:21.342Z,95266.56
2023-05-25T15:46:50.185Z,95263.88
2023-05-25T15:49:19.008Z,95273.59
2023-05-25T15:51:47.194Z,95263.53
2023-05-25T15:54:15.402Z,95263.03
2023-05-25T15:56:44.851Z,95268.47
2023-05-25T15:59:13.392Z,95255.94
2023-05-25T16:01:42.062Z,95254.44
2023-05-25T16:04:10.377Z,95268.53
2023-05-25T16:06:38.544Z,95265.97
2023-05-25T16:09:06.808Z,95268.69
2023-05-25T16:11:34.892Z,95270.75
2023-05-25T16:14:06.358Z,95272.91
2023-05-25T16:16:34.497Z,95273.78
2023-05-25T16:19:03.020Z,95268.34
2023-05-25T16:21:31.078Z,95269.38
2023-05-25T16:23:59.118Z,95276.44
2023-05-25T16:26:27.274Z,95283.78
2023-05-25T16:28:55.376Z,95286.22
2023-05-25T16:31:24.792Z,95294.03
2023-05-25T16:33:53.030Z,95287.31
2023-05-25T16:36:21.203Z,95308.53
2023-05-25T16:38:49.637Z,95297.69
2023-05-25T16:41:17.668Z,95307.69
2023-05-25T16:43:45.886Z,95306.31
2023-05-25T16:46:14.217Z,95309.31
2023-05-25T16:48:43.767Z,95304.56
2023-05-25T16:51:15.226Z,95317.94
2023-05-25T16:53:43.978Z,95330.47
2023-05-25T16:56:12.444Z,95326.97
2023-05-25T16:58:40.385Z,95330.22
2023-05-25T17:01:08.525Z,95345.28
2023-05-25T17:03:36.766Z,95339.44
2023-05-25T17:06:06.829Z,95352.75
2023-05-25T17:08:36.863Z,95362.97
2023-05-25T17:11:04.964Z,95363.56
2023-05-25T17:13:33.362Z,95353.69
2023-05-25T17:16:01.540Z,95345.41
2023-05-25T17:18:29.640Z,95342.34
2023-05-25T17:20:59.882Z,95338.56
2023-05-25T17:23:29.334Z,95352.50
2023-05-25T17:25:57.288Z,95340.34
2023-05-25T17:28:26.349Z,95346.69
2023-05-25T17:30:54.570Z,95356.28
2023-05-25T17:33:22.682Z,95357.84
2023-05-25T17:35:50.789Z,95360.13
2023-05-25T17:38:19.012Z,95351.03
2023-05-25T17:40:50.157Z,95352.25
2023-05-25T17:43:18.425Z,95347.72
2023-05-25T17:45:47.278Z,95363.91
2023-05-25T17:48:16.067Z,95363.56
2023-05-25T17:50:44.591Z,95362.50
2023-05-25T17:53:12.950Z,95345.06
2023-05-25T17:55:41.134Z,95341.88
2023-05-25T17:58:10.644Z,95359.00
2023-05-25T18:00:38.797Z,95362.44
2023-05-25T18:03:07.473Z,95363.88
2023-05-25T18:05:35.552Z,95363.41
2023-05-25T18:08:05.078Z,95378.59
2023-05-25T18:10:33.129Z,95386.19
2023-05-25T18:13:01.266Z,95386.03
2023-05-25T18:15:30.923Z,95384.16
2023-05-25T18:18:02.542Z,95393.38
2023-05-25T18:20:30.591Z,95401.53
2023-05-25T18:22:59.915Z,95401.94
2023-05-25T18:25:27.999Z,95415.53
2023-05-25T18:27:56.037Z,95419.75
2023-05-25T18:30:24.869Z,95416.31
2023-05-25T18:32:56.762Z,95422.41
2023-05-25T18:35:25.367Z,95429.31
2023-05-25T18:37:53.444Z,95432.69
2023-05-25T18:40:21.663Z,95459.75
2023-05-25T18:42:50.960Z,95468.34
2023-05-25T18:45:18.990Z,95470.19
2023-05-25T18:47:47.232Z,95466.06
2023-05-25T18:50:17.145Z,95481.47
2023-05-25T18:52:46.989Z,95490.81
2023-05-25T18:55:14.985Z,95487.06
2023-05-25T18:57:43.229Z,95491.72
2023-05-25T19:00:12.466Z,95495.91
2023-05-25T19:02:40.969Z,95494.34
2023-05-25T19:05:11.804Z,95511.31
2023-05-25T19:07:51.094Z,95526.22
2023-05-25T19:10:23.330Z,95546.44
2023-05-25T19:12:51.449Z,95562.47
2023-05-25T19:15:19.506Z,95566.25
2023-05-25T19:17:48.060Z,95566.81
2023-05-25T19:20:17.516Z,95566.41
2023-05-25T19:22:47.840Z,95566.06
2023-05-25T19:25:15.999Z,95572.00
2023-05-25T19:27:45.223Z,95581.38
2023-05-25T19:30:16.249Z,95575.00
2023-05-25T19:32:44.438Z,95583.94
2023-05-25T19:35:12.820Z,95585.06
2023-05-25T19:37:41.893Z,95578.94
2023-05-25T19:40:13.427Z,95577.44
2023-05-25T19:42:41.758Z,95581.28
2023-05-25T19:45:11.023Z,95579.63
2023-05-25T19:47:39.102Z,95571.13
2023-05-25T19:50:09.907Z,95571.75
2023-05-25T19:52:37.896Z,95573.69
2023-05-25T19:55:06.938Z,95579.19
2023-05-25T19:57:36.620Z,95573.41
2023-05-25T20:00:09.185Z,95563.84
2023-05-25T20:02:43.258Z,95554.41
2023-05-25T20:05:11.723Z,95539.50
2023-05-25T20:07:40.704Z,95528.13
2023-05-25T20:10:09.490Z,95516.06
2023-05-25T20:12:38.975Z,95521.75
2023-05-25T20:15:07.890Z,95514.41
2023-05-25T20:17:36.080Z,95501.69
2023-05-25T20:20:05.552Z,95491.63
2023-05-25T20:22:33.907Z,95487.56
2023-05-25T20:25:04.136Z,95482.56
2023-05-25T20:27:32.146Z,95484.69
2023-05-25T20:30:01.526Z,95470.53
2023-05-25T20:32:30.073Z,95481.22
2023-05-25T20:34:58.158Z,95480.16
2023-05-25T20:37:26.168Z,95487.00
2023-05-25T20:39:56.616Z,95477.19
2023-05-25T20:42:27.372Z,95460.78
2023-05-25T20:44:55.485Z,95460.63
2023-05-25T20:47:25.187Z,95463.28
2023-05-25T20:49:55.353Z,95465.63
2023-05-25T20:52:25.801Z,95468.50
2023-05-25T20:54:54.320Z,95470.34
2023-05-25T20:57:22.384Z,95461.78
2023-05-25T20:59:51.681Z,95462.41
2023-05-25T21:02:19.680Z,95449.06
2023-05-25T21:04:49.038Z,95447.06
2023-05-25T21:07:18.872Z,95449.22
2023-05-25T21:09:47.933Z,95446.09
2023-05-25T21:12:16.148Z,95451.25
2023-05-25T21:14:44.153Z,95443.97
2023-05-25T21:17:12.225Z,95449.47
2023-05-25T21:19:40.273Z,95443.13
2023-05-25T21:22:11.400Z,95432.59
2023-05-25T21:24:39.418Z,95436.53
2023-05-25T21:27:09.733Z,95436.91
2023-05-25T21:29:37.977Z,95429.88
2023-05-25T21:32:06.464Z,95431.91
2023-05-25T21:34:34.625Z,95447.06
2023-05-25T21:37:03.379Z,95447.75
2023-05-25T21:39:32.844Z,95443.56
2023-05-25T21:42:02.923Z,95431.91
2023-05-25T21:44:31.331Z,95433.66
2023-05-25T21:46:59.446Z,95428.47
2023-05-25T21:49:27.664Z,95429.72
2023-05-25T21:51:55.788Z,95423.50
2023-05-25T21:54:24.110Z,95424.28
2023-05-25T21:56:55.808Z,95424.53
2023-05-25T21:59:24.311Z,95413.94
2023-05-25T22:01:52.761Z,95412.75
2023-05-25T22:04:21.135Z,95416.03
2023-05-25T22:06:49.129Z,95409.31
2023-05-25T22:09:17.280Z,95412.03
2023-05-25T22:11:45.296Z,95414.50
2023-05-25T22:14:14.903Z,95412.81
2023-05-25T22:16:43.198Z,95417.03
2023-05-25T22:19:11.383Z,95411.34
2023-05-25T22:21:39.394Z,95407.84
2023-05-25T22:24:07.596Z,95394.19
2023-05-25T22:26:35.572Z,95400.66
2023-05-25T22:29:03.579Z,95402.13
2023-05-25T22:31:33.217Z,95400.09
2023-05-25T22:34:01.374Z,95404.75
2023-05-25T22:36:29.389Z,95400.09
2023-05-25T22:38:57.571Z,95407.13
2023-05-25T22:41:26.554Z,95399.03
2023-05-25T22:43:54.552Z,95390.28
2023-05-25T22:46:23.377Z,95395.28
2023-05-25T22:48:52.907Z,95387.94
2023-05-25T22:51:20.980Z,95389.06
2023-05-25T22:53:49.049Z,95390.97
2023-05-25T22:56:17.243Z,95398.78
2023-05-25T22:58:45.290Z,95388.28
2023-05-25T23:01:13.734Z,95403.41
2023-05-25T23:03:41.896Z,95400.53
2023-05-25T23:06:11.482Z,95399.28
2023-05-25T23:08:39.509Z,95398.88
2023-05-25T23:11:07.517Z,95404.97
2023-05-25T23:13:35.861Z,95402.97
2023-05-25T23:16:04.017Z,95409.75
2023-05-25T23:18:32.019Z,95410.00
2023-05-25T23:21:00.028Z,95405.72
2023-05-25T23:23:29.446Z,95408.53
2023-05-25T23:25:58.001Z,95411.59
2023-05-25T23:28:26.160Z,95407.72
2023-05-25T23:30:54.222Z,95408.19
2023-05-25T23:33:23.657Z,95407.28
2023-05-25T23:35:51.716Z,95411.72
2023-05-25T23:38:19.673Z,95404.53
2023-05-25T23:40:49.019Z,95408.03
2023-05-25T23:43:17.128Z,95412.56
2023-05-25T23:45:45.456Z,95409.19
2023-05-25T23:48:13.651Z,95407.94
2023-05-25T23:50:42.445Z,95409.09
2023-05-25T23:53:10.610Z,95408.97
2023-05-25T23:55:38.616Z,95407.63
2023-05-25T23:58:08.208Z,95400.97
